Time;durP1;ratioP1;P1;durP2;ratioP2;P2;SDS_P1;SDS_P2;PMS_P1;PMS_P2;Temp;Humidity;BMP_temperature;BMP_pressure;BME280_temperature;BME280_humidity;BME280_pressure;Samples;Min_cycle;Max_cycle;Signal;HPM_P1;HPM_P2
2021/05/14 00:01:44;;;;;;;4.00;3.80;;;11.20;99.90;;;;;;5026439;28;20997;-75
2021/05/14 00:04:10;;;;;;;4.63;4.30;;;11.20;99.90;;;;;;5026514;28;20201;-75
2021/05/14 00:06:37;;;;;;;4.23;3.93;;;11.20;99.90;;;;;;5026897;28;20220;-75
2021/05/14 00:09:04;;;;;;;4.10;3.80;;;11.20;99.90;;;;;;5026603;28;20278;-75
2021/05/14 00:11:30;;;;;;;4.30;4.00;;;11.20;99.90;;;;;;5026653;28;20248;-76
2021/05/14 00:13:59;;;;;;;4.07;3.87;;;11.30;99.90;;;;;;5026195;28;20265;-75
2021/05/14 00:16:25;;;;;;;4.50;4.10;;;11.20;99.90;;;;;;5026652;28;20215;-75
2021/05/14 00:18:51;;;;;;;4.53;4.23;;;11.20;99.90;;;;;;5026462;28;20262;-75
2021/05/14 00:21:17;;;;;;;4.80;4.50;;;11.30;99.90;;;;;;5026538;28;20212;-75
2021/05/14 00:23:43;;;;;;;5.07;4.30;;;11.30;99.90;;;;;;5026550;28;20201;-75
2021/05/14 00:26:10;;;;;;;4.83;4.10;;;11.30;99.90;;;;;;5026245;28;20258;-75
2021/05/14 00:28:36;;;;;;;4.13;3.83;;;11.30;99.90;;;;;;5026203;28;20219;-75
2021/05/14 00:31:03;;;;;;;4.13;3.83;;;11.30;99.90;;;;;;5026141;28;20205;-75
2021/05/14 00:33:29;;;;;;;3.90;3.60;;;11.30;99.90;;;;;;5026405;28;20205;-75
2021/05/14 00:35:55;;;;;;;4.30;4.00;;;11.30;99.90;;;;;;5025996;28;20212;-75
2021/05/14 00:38:21;;;;;;;3.77;3.50;;;11.30;99.90;;;;;;5025917;28;20252;-76
2021/05/14 00:40:47;;;;;;;3.93;3.73;;;11.20;99.90;;;;;;5026136;28;20197;-75
2021/05/14 00:43:14;;;;;;;4.30;3.90;;;11.20;99.90;;;;;;5025843;28;20290;-75
2021/05/14 00:45:40;;;;;;;3.90;3.60;;;11.30;99.90;;;;;;5026042;28;20212;-75
2021/05/14 00:48:07;;;;;;;3.77;3.47;;;11.20;99.90;;;;;;5025802;28;20213;-75
2021/05/14 00:50:33;;;;;;;3.67;3.47;;;11.20;99.90;;;;;;5026124;28;20212;-75
2021/05/14 00:52:59;;;;;;;4.10;3.80;;;11.20;99.90;;;;;;5025761;28;20215;-75
2021/05/14 00:55:26;;;;;;;3.77;3.50;;;11.20;99.90;;;;;;5025284;28;20209;-75
2021/05/14 00:57:52;;;;;;;3.83;3.60;;;11.20;99.90;;;;;;5025859;28;20271;-75
2021/05/14 01:00:20;;;;;;;3.57;3.33;;;11.20;99.90;;;;;;5025950;28;20229;-75
2021/05/14 01:02:50;;;;;;;3.50;3.20;;;11.30;99.90;;;;;;5025968;28;20200;-75
2021/05/14 01:05:16;;;;;;;3.67;3.47;;;11.20;99.90;;;;;;5025616;28;20287;-75
2021/05/14 01:07:42;;;;;;;4.47;3.30;;;11.10;99.90;;;;;;5025635;28;20261;-75
2021/05/14 01:10:09;;;;;;;3.70;3.50;;;11.10;99.90;;;;;;5025535;28;20233;-75
2021/05/14 01:12:35;;;;;;;4.07;3.70;;;11.20;99.90;;;;;;5025493;28;20209;-75
2021/05/14 01:15:02;;;;;;;3.57;3.37;;;11.10;99.90;;;;;;5025232;28;20208;-75
2021/05/14 01:17:30;;;;;;;4.23;3.90;;;11.10;99.90;;;;;;5025355;28;20236;-75
2021/05/14 01:19:56;;;;;;;3.60;3.40;;;11.10;99.90;;;;;;5025616;28;20225;-75
2021/05/14 01:22:25;;;;;;;4.53;4.13;;;11.20;99.90;;;;;;5025636;28;20238;-76
2021/05/14 01:24:51;;;;;;;4.80;4.50;;;11.10;99.90;;;;;;5025513;28;20295;-75
2021/05/14 01:27:17;;;;;;;5.33;4.43;;;11.10;99.90;;;;;;5025804;28;20217;-76
2021/05/14 01:29:44;;;;;;;5.03;4.60;;;11.10;99.90;;;;;;5025769;28;20205;-76
2021/05/14 01:32:11;;;;;;;5.43;4.93;;;11.10;99.90;;;;;;5025598;28;20200;-76
2021/05/14 01:34:37;;;;;;;5.37;4.87;;;11.10;99.90;;;;;;5025474;28;20620;-75
2021/05/14 01:37:03;;;;;;;5.60;5.07;;;11.10;99.90;;;;;;5025497;28;20268;-75
2021/05/14 01:39:30;;;;;;;4.97;4.57;;;11.10;99.90;;;;;;5025275;28;20277;-75
2021/05/14 01:41:56;;;;;;;5.57;5.13;;;11.10;99.90;;;;;;5025566;28;20216;-75
2021/05/14 01:44:23;;;;;;;5.93;5.50;;;11.10;99.90;;;;;;5025144;28;20257;-75
2021/05/14 01:46:50;;;;;;;6.33;5.80;;;11.00;99.90;;;;;;5025489;28;20212;-75
2021/05/14 01:49:16;;;;;;;6.30;5.73;;;11.00;99.90;;;;;;5025246;28;20205;-75
2021/05/14 01:51:42;;;;;;;6.00;5.40;;;11.00;99.90;;;;;;5025375;28;20208;-75
2021/05/14 01:54:09;;;;;;;5.97;5.47;;;11.00;99.90;;;;;;5025108;28;20213;-77
2021/05/14 01:56:36;;;;;;;6.27;5.73;;;11.00;99.90;;;;;;5025228;28;20205;-76
2021/05/14 01:59:02;;;;;;;6.80;6.10;;;11.00;99.90;;;;;;5025163;28;20209;-76
2021/05/14 02:01:28;;;;;;;5.87;5.40;;;11.00;99.90;;;;;;5025431;28;20232;-75
2021/05/14 02:03:55;;;;;;;6.10;5.60;;;11.00;99.90;;;;;;5025103;28;20205;-75
2021/05/14 02:06:21;;;;;;;6.90;6.20;;;10.90;99.90;;;;;;5027318;28;20631;-75
2021/05/14 02:08:47;;;;;;;7.33;6.63;;;11.00;99.90;;;;;;5028561;28;20220;-75
2021/05/14 02:11:13;;;;;;;6.60;6.10;;;11.00;99.90;;;;;;5028101;28;20201;-75
2021/05/14 02:13:41;;;;;;;7.77;6.60;;;10.90;99.90;;;;;;5028113;28;20217;-75
2021/05/14 02:16:08;;;;;;;6.97;6.37;;;11.00;99.90;;;;;;5028241;28;20289;-75
2021/05/14 02:18:35;;;;;;;8.03;7.23;;;11.00;99.90;;;;;;5028298;28;20245;-76
2021/05/14 02:21:02;;;;;;;6.87;6.27;;;10.90;99.90;;;;;;5028233;28;20205;-76
2021/05/14 02:23:28;;;;;;;8.47;6.67;;;10.90;99.90;;;;;;5028376;28;20224;-76
2021/05/14 02:25:55;;;;;;;7.23;6.63;;;11.00;99.90;;;;;;5028330;28;20232;-76
2021/05/14 02:28:22;;;;;;;7.30;6.60;;;11.00;99.90;;;;;;5027872;28;20663;-76
2021/05/14 02:30:49;;;;;;;8.07;7.37;;;11.00;99.90;;;;;;5028377;28;20213;-76
2021/05/14 02:33:15;;;;;;;8.13;7.33;;;11.00;99.90;;;;;;5028050;28;20205;-75
2021/05/14 02:35:41;;;;;;;8.30;7.57;;;11.00;99.90;;;;;;5028014;28;20244;-75
2021/05/14 02:38:08;;;;;;;8.83;7.60;;;11.00;99.90;;;;;;5027860;28;20271;-75
2021/05/14 02:40:34;;;;;;;6.73;6.17;;;11.00;99.90;;;;;;5027655;28;20232;-75
2021/05/14 02:43:01;;;;;;;7.87;7.07;;;11.00;99.90;;;;;;5027772;28;20213;-75
2021/05/14 02:45:27;;;;;;;7.10;6.40;;;11.00;99.90;;;;;;5028086;28;20204;-75
2021/05/14 02:47:54;;;;;;;7.57;6.90;;;11.00;99.90;;;;;;5028041;28;20601;-76
2021/05/14 02:50:21;;;;;;;7.43;6.70;;;11.00;99.90;;;;;;5027764;28;20205;-76
2021/05/14 02:52:47;;;;;;;6.60;6.00;;;11.10;99.90;;;;;;5028083;28;20238;-76
2021/05/14 02:55:13;;;;;;;6.83;6.23;;;11.00;99.90;;;;;;5027403;28;20627;-76
2021/05/14 02:57:42;;;;;;;6.90;6.20;;;11.00;99.90;;;;;;5027764;28;20228;-75
2021/05/14 03:00:10;;;;;;;6.17;5.67;;;11.00;99.90;;;;;;5027932;28;20307;-75
2021/05/14 03:02:36;;;;;;;6.03;5.53;;;11.00;99.90;;;;;;5027697;28;20215;-75
2021/05/14 03:05:04;;;;;;;6.70;6.00;;;11.00;99.90;;;;;;5027433;28;20701;-75
2021/05/14 03:07:30;;;;;;;8.07;6.33;;;11.00;99.90;;;;;;5027706;28;20240;-75
2021/05/14 03:09:56;;;;;;;7.10;6.33;;;11.00;99.90;;;;;;5027656;28;20226;-75
2021/05/14 03:12:22;;;;;;;6.43;5.83;;;11.00;99.90;;;;;;5027306;28;20248;-75
2021/05/14 03:14:48;;;;;;;5.93;5.33;;;11.00;99.90;;;;;;5027324;28;20240;-75
2021/05/14 03:17:14;;;;;;;6.70;6.07;;;10.90;99.90;;;;;;5026466;28;20725;-76
2021/05/14 03:19:40;;;;;;;7.33;6.63;;;10.90;99.90;;;;;;5027131;28;20225;-75
2021/05/14 03:22:07;;;;;;;7.87;7.13;;;10.90;99.90;;;;;;5027127;28;20212;-75
2021/05/14 03:24:33;;;;;;;7.77;7.07;;;10.90;99.90;;;;;;5027384;28;20201;-75
2021/05/14 03:27:00;;;;;;;7.43;6.67;;;10.90;99.90;;;;;;5027190;28;20224;-76
2021/05/14 03:29:26;;;;;;;7.73;6.93;;;10.90;99.90;;;;;;5027121;28;20205;-75
2021/05/14 03:31:52;;;;;;;7.43;6.83;;;10.90;99.90;;;;;;5027383;28;20241;-75
2021/05/14 03:34:18;;;;;;;9.53;6.97;;;10.90;99.90;;;;;;5027115;28;20609;-75
2021/05/14 03:36:44;;;;;;;7.53;6.83;;;10.90;99.90;;;;;;5027047;28;20209;-75
2021/05/14 03:39:13;;;;;;;7.57;6.90;;;10.90;99.90;;;;;;5026652;28;20252;-75
2021/05/14 03:41:48;;;;;;;7.60;7.00;;;10.90;99.90;;;;;;5026904;27;20749;-75
2021/05/14 03:44:14;;;;;;;7.37;6.70;;;10.90;99.90;;;;;;5026812;28;20223;-75
2021/05/14 03:46:40;;;;;;;7.97;7.27;;;10.90;99.90;;;;;;5027075;28;20208;-76
2021/05/14 03:49:07;;;;;;;7.23;6.60;;;10.90;99.90;;;;;;5026838;28;20220;-75
2021/05/14 03:51:35;;;;;;;8.00;7.20;;;10.90;99.90;;;;;;5026948;28;20226;-75
2021/05/14 03:54:02;;;;;;;6.77;6.23;;;10.90;99.90;;;;;;5026862;28;20601;-75
2021/05/14 03:56:29;;;;;;;7.93;6.37;;;10.90;99.90;;;;;;5026520;28;20730;-76
2021/05/14 03:58:57;;;;;;;7.37;6.70;;;10.80;99.90;;;;;;5026842;28;20247;-75
2021/05/14 04:01:23;;;;;;;6.83;6.13;;;10.80;99.90;;;;;;5026737;28;20216;-75
2021/05/14 04:03:50;;;;;;;7.10;6.50;;;10.80;99.90;;;;;;5026692;28;20205;-75
2021/05/14 04:06:16;;;;;;;7.10;6.40;;;10.80;99.90;;;;;;5026677;28;20232;-75
2021/05/14 04:08:42;;;;;;;6.37;5.80;;;10.80;99.90;;;;;;5026779;28;20224;-75
2021/05/14 04:11:28;;;;;;;7.40;6.70;;;10.80;99.90;;;;;;5026477;28;20261;-75
2021/05/14 04:16:38;;;;;;;7.30;6.60;;;10.70;99.90;;;;;;5018941;27;20342;-75
2021/05/14 04:19:04;;;;;;;7.63;6.83;;;10.70;99.90;;;;;;5026108;28;20710;-75
2021/05/14 04:21:31;;;;;;;7.30;6.70;;;10.70;99.90;;;;;;5026765;28;20217;-75
2021/05/14 04:23:57;;;;;;;7.20;6.50;;;10.70;99.90;;;;;;5026212;28;20213;-75
2021/05/14 04:26:23;;;;;;;7.70;7.07;;;10.70;99.90;;;;;;5026112;28;20209;-75
2021/05/14 04:28:49;;;;;;;8.00;7.30;;;10.70;99.90;;;;;;5025286;28;20668;-75
2021/05/14 04:31:16;;;;;;;8.37;7.67;;;10.70;99.90;;;;;;5026197;28;20205;-75
2021/05/14 04:33:42;;;;;;;8.33;7.53;;;10.70;99.90;;;;;;5026341;28;20205;-75
2021/05/14 04:36:08;;;;;;;8.23;6.97;;;10.60;99.90;;;;;;5025750;28;20655;-75
2021/05/14 04:38:35;;;;;;;8.60;7.80;;;10.60;99.90;;;;;;5025894;28;20248;-75
2021/05/14 04:41:01;;;;;;;8.47;7.60;;;10.70;99.90;;;;;;5026168;28;20221;-75
2021/05/14 04:43:27;;;;;;;8.73;7.83;;;10.60;99.90;;;;;;5026012;28;20213;-75
2021/05/14 04:45:53;;;;;;;8.97;8.13;;;10.70;99.90;;;;;;5026103;28;20275;-75
2021/05/14 04:48:20;;;;;;;8.67;7.77;;;10.60;99.90;;;;;;5025696;28;20743;-75
2021/05/14 04:50:46;;;;;;;7.90;7.10;;;10.60;99.90;;;;;;5026187;28;20211;-75
2021/05/14 04:53:14;;;;;;;8.80;7.90;;;10.70;99.90;;;;;;5025844;28;20205;-75
2021/05/14 04:55:40;;;;;;;8.73;7.83;;;10.50;99.90;;;;;;5025964;28;20205;-76
2021/05/14 04:58:06;;;;;;;8.20;7.37;;;10.60;99.90;;;;;;5025914;28;20232;-75
2021/05/14 05:00:33;;;;;;;9.23;7.90;;;10.60;99.90;;;;;;5025643;28;20219;-75
2021/05/14 05:03:00;;;;;;;8.70;7.63;;;10.50;99.90;;;;;;5025931;28;20232;-75
2021/05/14 05:05:27;;;;;;;8.87;8.03;;;10.60;99.90;;;;;;5025616;28;20219;-75
2021/05/14 05:07:53;;;;;;;8.93;8.10;;;10.50;99.90;;;;;;5025571;28;20576;-75
2021/05/14 05:10:20;;;;;;;10.53;9.43;;;10.50;99.90;;;;;;5025855;28;20208;-75
2021/05/14 05:12:46;;;;;;;9.97;8.97;;;10.50;99.90;;;;;;5025697;28;20727;-75
2021/05/14 05:15:14;;;;;;;11.73;9.30;;;10.50;99.90;;;;;;5025630;28;20216;-75
2021/05/14 05:17:40;;;;;;;10.77;8.90;;;10.50;99.90;;;;;;5025586;28;20232;-75
2021/05/14 05:20:08;;;;;;;10.10;8.97;;;10.50;99.90;;;;;;5025652;28;20221;-75
2021/05/14 05:22:35;;;;;;;10.93;9.70;;;10.50;99.90;;;;;;5025710;28;20231;-75
2021/05/14 05:25:01;;;;;;;10.57;9.07;;;10.50;99.90;;;;;;5025451;28;20654;-75
2021/05/14 05:27:27;;;;;;;11.50;9.80;;;10.50;99.90;;;;;;5025598;28;20255;-75
2021/05/14 05:29:53;;;;;;;12.83;10.07;;;10.50;99.90;;;;;;5025757;28;20208;-75
2021/05/14 05:32:19;;;;;;;10.20;8.97;;;10.60;99.90;;;;;;5025275;28;20213;-75
2021/05/14 05:34:46;;;;;;;12.00;9.90;;;10.60;99.90;;;;;;5025420;28;20205;-75
2021/05/14 05:37:12;;;;;;;10.90;9.73;;;10.50;99.90;;;;;;5025155;28;20229;-75
2021/05/14 05:39:39;;;;;;;12.20;10.33;;;10.70;99.90;;;;;;5025715;28;20255;-76
2021/05/14 05:42:05;;;;;;;10.83;9.57;;;10.70;99.90;;;;;;5028903;28;20247;-75
2021/05/14 05:44:32;;;;;;;11.13;9.50;;;10.70;99.90;;;;;;5028946;28;20213;-76
2021/05/14 05:46:58;;;;;;;10.93;8.90;;;10.70;99.90;;;;;;5028751;28;20224;-75
2021/05/14 05:49:25;;;;;;;11.03;8.73;;;10.60;99.90;;;;;;5028287;28;20262;-75
2021/05/14 05:51:53;;;;;;;13.27;9.80;;;10.60;99.90;;;;;;5030262;28;20205;-75
2021/05/14 05:54:19;;;;;;;14.67;10.30;;;10.60;99.90;;;;;;5028398;28;20201;-75
2021/05/14 05:56:46;;;;;;;12.33;9.83;;;10.50;99.90;;;;;;5028375;28;20209;-76
2021/05/14 05:59:16;;;;;;;15.03;10.50;;;10.50;99.90;;;;;;5028417;27;20307;-75
2021/05/14 06:01:42;;;;;;;16.20;10.77;;;10.50;99.90;;;;;;5028376;28;20209;-76
2021/05/14 06:04:08;;;;;;;16.37;11.23;;;10.40;99.90;;;;;;5028082;28;20227;-76
2021/05/14 06:06:34;;;;;;;17.33;11.27;;;10.50;99.90;;;;;;5028235;28;20227;-76
2021/05/14 06:09:00;;;;;;;16.67;11.03;;;10.40;99.90;;;;;;5028232;28;20528;-75
2021/05/14 06:11:26;;;;;;;15.83;9.77;;;10.40;99.90;;;;;;5028331;28;20227;-75
2021/05/14 06:13:53;;;;;;;14.23;9.83;;;10.40;99.90;;;;;;5028170;28;20216;-75
2021/05/14 06:16:20;;;;;;;12.90;10.03;;;10.40;99.90;;;;;;5028053;28;20230;-75
2021/05/14 06:18:49;;;;;;;12.90;9.27;;;10.40;99.90;;;;;;5027890;28;20288;-75
2021/05/14 06:21:15;;;;;;;12.80;8.73;;;10.40;99.90;;;;;;5028066;28;20208;-75
2021/05/14 06:23:41;;;;;;;11.33;8.73;;;10.40;99.90;;;;;;5027976;28;20232;-75
2021/05/14 06:26:08;;;;;;;9.77;7.43;;;10.40;99.90;;;;;;5028008;28;20240;-76
2021/05/14 06:28:34;;;;;;;7.90;6.97;;;10.40;99.90;;;;;;5027793;28;20244;-75
2021/05/14 06:31:01;;;;;;;9.60;6.97;;;10.50;99.90;;;;;;5027959;28;20233;-75
2021/05/14 06:33:27;;;;;;;7.30;6.60;;;10.40;99.90;;;;;;5027477;28;20679;-75
2021/05/14 06:35:56;;;;;;;7.43;6.40;;;10.40;99.90;;;;;;5028297;28;20247;-75
2021/05/14 06:38:23;;;;;;;11.00;6.90;;;10.30;99.90;;;;;;5027804;28;20767;-75
2021/05/14 06:40:49;;;;;;;6.93;6.30;;;10.30;99.90;;;;;;5027721;28;20729;-76
2021/05/14 06:43:15;;;;;;;8.37;6.80;;;10.30;99.90;;;;;;5027880;28;20205;-76
2021/05/14 06:45:41;;;;;;;7.50;6.70;;;10.30;99.90;;;;;;5027978;28;20239;-76
2021/05/14 06:48:13;;;;;;;8.80;6.90;;;10.30;99.90;;;;;;5027816;28;20201;-75
2021/05/14 06:50:40;;;;;;;8.80;7.20;;;10.40;99.90;;;;;;5028061;28;20201;-75
2021/05/14 06:53:07;;;;;;;7.23;6.47;;;10.40;99.90;;;;;;5026510;28;20690;-75
2021/05/14 06:55:34;;;;;;;8.47;6.97;;;10.40;99.90;;;;;;5027223;28;20205;-76
2021/05/14 06:58:00;;;;;;;10.00;6.53;;;10.40;99.90;;;;;;5027098;28;20838;-75
2021/05/14 07:00:26;;;;;;;8.27;6.83;;;10.40;99.90;;;;;;5027479;28;20208;-75
2021/05/14 07:02:53;;;;;;;9.23;7.00;;;10.50;99.90;;;;;;5027449;28;20232;-75
2021/05/14 07:05:19;;;;;;;7.63;6.83;;;10.50;99.90;;;;;;5027328;28;20618;-75
2021/05/14 07:07:46;;;;;;;8.37;6.77;;;10.50;99.90;;;;;;5027728;28;20216;-75
2021/05/14 07:10:13;;;;;;;7.23;6.47;;;10.60;99.90;;;;;;5027700;28;20245;-75
2021/05/14 07:12:39;;;;;;;9.03;6.87;;;10.50;99.90;;;;;;5026995;28;20667;-75
2021/05/14 07:15:08;;;;;;;8.20;6.87;;;10.50;99.90;;;;;;5027628;28;20207;-76
2021/05/14 07:17:35;;;;;;;7.53;6.73;;;10.50;99.90;;;;;;5027425;28;20285;-76
2021/05/14 07:20:01;;;;;;;7.43;6.70;;;10.50;99.90;;;;;;5027368;28;20225;-75
2021/05/14 07:22:28;;;;;;;7.40;6.57;;;10.50;99.90;;;;;;5027317;28;20205;-75
2021/05/14 07:24:54;;;;;;;8.07;6.40;;;10.50;99.90;;;;;;5027349;28;20217;-75
2021/05/14 07:27:20;;;;;;;6.27;5.70;;;10.50;99.90;;;;;;5026855;28;20574;-76
2021/05/14 07:29:46;;;;;;;6.57;5.80;;;10.60;99.90;;;;;;5027528;28;20243;-76
2021/05/14 07:32:12;;;;;;;5.70;4.53;;;10.50;99.90;;;;;;5027175;28;20209;-75
2021/05/14 07:34:41;;;;;;;5.47;4.10;;;10.50;99.90;;;;;;5027049;28;20212;-75
2021/05/14 07:37:07;;;;;;;5.53;4.37;;;10.40;99.90;;;;;;5027191;28;20209;-75
2021/05/14 07:39:37;;;;;;;4.43;4.03;;;10.40;99.90;;;;;;5026681;28;21049;-76
2021/05/14 07:42:04;;;;;;;3.60;3.30;;;10.50;99.90;;;;;;5027108;28;20205;-75
2021/05/14 07:44:30;;;;;;;3.30;3.00;;;10.40;99.90;;;;;;5026839;28;20687;-75
2021/05/14 07:46:57;;;;;;;4.23;3.30;;;10.40;99.90;;;;;;5027051;28;20233;-76
2021/05/14 07:49:23;;;;;;;3.10;2.80;;;10.50;99.90;;;;;;5026642;28;20511;-75
2021/05/14 07:51:49;;;;;;;3.23;3.00;;;10.40;99.90;;;;;;5026898;28;20697;-76
2021/05/14 07:54:15;;;;;;;2.83;2.63;;;10.40;99.90;;;;;;5026903;28;20217;-75
2021/05/14 07:56:42;;;;;;;2.83;2.60;;;10.40;99.90;;;;;;5026761;28;20216;-76
2021/05/14 07:59:11;;;;;;;2.90;2.70;;;10.40;99.90;;;;;;5026923;28;20232;-76
2021/05/14 08:01:37;;;;;;;3.00;2.80;;;10.40;99.90;;;;;;5026635;28;20761;-75
2021/05/14 08:04:04;;;;;;;3.27;3.07;;;10.40;99.90;;;;;;5026647;28;20551;-76
2021/05/14 08:06:30;;;;;;;4.60;3.27;;;10.40;99.90;;;;;;5026870;28;20205;-75
2021/05/14 08:08:58;;;;;;;3.10;2.90;;;10.40;99.90;;;;;;5026680;28;20216;-75
2021/05/14 08:11:24;;;;;;;3.70;3.20;;;10.50;99.90;;;;;;5026641;28;20209;-75
2021/05/14 08:13:51;;;;;;;3.67;3.37;;;10.50;99.90;;;;;;5026618;28;20208;-75
2021/05/14 08:16:17;;;;;;;4.23;3.93;;;10.40;99.90;;;;;;5026544;28;20201;-76
2021/05/14 08:18:43;;;;;;;5.13;4.73;;;10.40;99.90;;;;;;5026347;28;20233;-75
2021/05/14 08:21:09;;;;;;;7.37;5.53;;;10.40;99.90;;;;;;5026596;28;20209;-75
2021/05/14 08:23:35;;;;;;;6.60;5.30;;;10.30;99.90;;;;;;5026386;28;20232;-75
2021/05/14 08:26:02;;;;;;;6.07;5.47;;;10.30;99.90;;;;;;5026395;28;20247;-75
2021/05/14 08:28:28;;;;;;;6.70;5.87;;;10.30;99.90;;;;;;5026242;28;20209;-75
2021/05/14 08:30:55;;;;;;;6.33;5.60;;;10.20;99.90;;;;;;5026322;28;20209;-75
2021/05/14 08:33:22;;;;;;;6.30;5.70;;;10.30;99.90;;;;;;5026503;28;20211;-75
2021/05/14 08:35:48;;;;;;;6.30;5.60;;;10.20;99.90;;;;;;5026601;28;20239;-75
2021/05/14 08:38:14;;;;;;;7.17;5.47;;;10.20;99.90;;;;;;5026027;28;20233;-75
2021/05/14 08:40:40;;;;;;;6.83;5.80;;;10.20;99.90;;;;;;5025715;28;20303;-75
2021/05/14 08:43:07;;;;;;;7.37;5.60;;;10.20;99.90;;;;;;5026329;28;20200;-75
2021/05/14 08:45:33;;;;;;;5.83;5.30;;;10.20;99.90;;;;;;5026019;28;20205;-75
2021/05/14 08:48:00;;;;;;;8.93;6.20;;;10.20;99.90;;;;;;5026294;28;20816;-75
2021/05/14 08:50:28;;;;;;;8.50;6.63;;;10.30;99.90;;;;;;5025636;28;20614;-75
2021/05/14 08:52:54;;;;;;;7.40;6.07;;;10.30;99.90;;;;;;5025936;28;20201;-75
2021/05/14 08:55:23;;;;;;;8.83;6.23;;;10.30;99.90;;;;;;5025473;28;20212;-75
2021/05/14 08:57:51;;;;;;;8.93;5.70;;;10.30;99.90;;;;;;5025557;28;20729;-76
2021/05/14 09:00:18;;;;;;;8.50;5.87;;;10.30;99.90;;;;;;5025703;28;20675;-75
2021/05/14 09:02:44;;;;;;;7.70;5.70;;;10.40;99.90;;;;;;5025951;28;20244;-76
2021/05/14 09:05:25;;;;;;;9.77;5.53;;;10.40;99.90;;;;;;5025984;28;20265;-76
2021/05/14 09:07:53;;;;;;;5.20;4.73;;;10.40;99.90;;;;;;5025740;28;20577;-75
2021/05/14 09:10:20;;;;;;;6.10;4.90;;;10.40;99.90;;;;;;5025726;28;20693;-76
2021/05/14 09:12:46;;;;;;;5.10;4.60;;;10.40;99.90;;;;;;5025983;28;20204;-76
2021/05/14 09:15:29;;;;;;;7.20;4.70;;;10.60;99.90;;;;;;5027057;28;20216;-76
2021/05/14 09:18:03;;;;;;;5.03;4.63;;;10.50;99.90;;;;;;5029351;28;20259;-76
2021/05/14 09:20:34;;;;;;;6.27;4.50;;;10.50;99.90;;;;;;5029103;28;20230;-75
2021/05/14 09:23:00;;;;;;;4.77;4.00;;;10.50;99.90;;;;;;5029334;28;20207;-76
2021/05/14 09:25:26;;;;;;;4.43;4.00;;;10.50;99.90;;;;;;5028727;28;20204;-76
2021/05/14 09:27:52;;;;;;;4.70;3.40;;;10.50;99.90;;;;;;5029286;28;20213;-75
2021/05/14 09:30:18;;;;;;;4.73;3.50;;;10.50;99.90;;;;;;5028842;28;20212;-75
2021/05/14 09:32:45;;;;;;;4.27;3.30;;;10.50;99.90;;;;;;5029059;28;20570;-76
2021/05/14 09:35:11;;;;;;;4.63;3.37;;;10.40;99.90;;;;;;5029212;28;20587;-76
2021/05/14 09:37:48;;;;;;;6.43;3.50;;;10.40;99.90;;;;;;5028733;28;20243;-75
2021/05/14 09:40:17;;;;;;;3.10;2.73;;;10.50;99.90;;;;;;5028514;28;20245;-76
2021/05/14 09:42:44;;;;;;;3.53;3.03;;;10.40;99.90;;;;;;5028545;28;20674;-76
2021/05/14 09:45:17;;;;;;;3.97;3.67;;;10.40;99.90;;;;;;5028637;28;20666;-76
2021/05/14 09:47:44;;;;;;;3.37;3.00;;;10.40;99.90;;;;;;5028862;28;20298;-76
2021/05/14 09:50:30;;;;;;;4.50;3.67;;;10.40;99.90;;;;;;5028082;28;20612;-76
2021/05/14 09:53:11;;;;;;;3.87;3.47;;;10.40;99.90;;;;;;5026576;28;20208;-76
2021/05/14 09:55:39;;;;;;;3.57;3.20;;;10.40;99.90;;;;;;5028473;28;20242;-76
2021/05/14 09:58:15;;;;;;;4.37;3.07;;;10.40;99.90;;;;;;5028586;28;20331;-76
2021/05/14 10:00:41;;;;;;;4.80;3.07;;;10.40;99.90;;;;;;5028651;28;20212;-75
2021/05/14 10:03:09;;;;;;;3.40;3.10;;;10.40;99.90;;;;;;5028917;28;20212;-76
2021/05/14 10:05:37;;;;;;;3.80;3.03;;;10.50;99.90;;;;;;5028318;28;20205;-76
2021/05/14 10:08:04;;;;;;;4.73;4.00;;;10.50;99.90;;;;;;5028350;28;20671;-76
2021/05/14 10:10:33;;;;;;;4.43;2.80;;;10.40;99.90;;;;;;5028317;28;20220;-76
2021/05/14 10:13:00;;;;;;;3.80;2.67;;;10.40;99.90;;;;;;5028272;28;20209;-76
2021/05/14 10:15:26;;;;;;;2.57;2.37;;;10.40;99.90;;;;;;5028140;28;20208;-76
2021/05/14 10:17:53;;;;;;;2.03;1.90;;;10.40;99.90;;;;;;5028423;28;20224;-76
2021/05/14 10:20:25;;;;;;;1.80;1.60;;;10.30;99.90;;;;;;5028246;28;20253;-75
2021/05/14 10:22:54;;;;;;;1.63;1.50;;;10.20;99.90;;;;;;5028479;28;20216;-75
2021/05/14 10:25:44;;;;;;;1.37;1.27;;;10.20;99.90;;;;;;5028225;28;20577;-76
2021/05/14 10:28:12;;;;;;;2.33;1.50;;;10.10;99.90;;;;;;5027501;28;20209;-76
2021/05/14 10:31:14;;;;;;;1.63;1.53;;;10.20;99.90;;;;;;5028499;28;20217;-75
2021/05/14 10:33:41;;;;;;;1.73;1.40;;;10.10;99.90;;;;;;5028346;28;20212;-75
2021/05/14 10:36:11;;;;;;;1.73;1.40;;;10.30;99.90;;;;;;5028281;28;20212;-76
2021/05/14 10:38:37;;;;;;;1.60;1.43;;;10.30;99.90;;;;;;5027843;28;20252;-75
2021/05/14 10:41:25;;;;;;;1.60;1.37;;;10.30;99.90;;;;;;5027595;28;20209;-76
2021/05/14 10:43:59;;;;;;;1.70;1.50;;;10.40;99.90;;;;;;5027931;28;20193;-76
2021/05/14 10:46:27;;;;;;;1.80;1.57;;;10.50;99.90;;;;;;5027690;28;20593;-76
2021/05/14 10:49:01;;;;;;;3.60;1.70;;;10.50;99.90;;;;;;5027711;28;20247;-75
2021/05/14 10:51:59;;;;;;;1.63;1.50;;;10.60;99.90;;;;;;5027901;28;20209;-76
2021/05/14 10:54:48;;;;;;;3.17;1.90;;;10.70;99.90;;;;;;5027317;28;20205;-75
2021/05/14 10:57:45;;;;;;;1.83;1.73;;;10.90;99.90;;;;;;5027767;28;20244;-76
2021/05/14 11:00:32;;;;;;;2.00;1.90;;;10.90;99.90;;;;;;5027536;28;20613;-76
2021/05/14 11:03:21;;;;;;;2.30;2.10;;;11.10;99.90;;;;;;5027525;28;20285;-76
2021/05/14 11:05:48;;;;;;;2.47;2.00;;;11.20;99.90;;;;;;5027579;28;20216;-76
2021/05/14 11:08:40;;;;;;;1.90;1.80;;;11.30;99.90;;;;;;5027629;28;20209;-75
2021/05/14 11:11:09;;;;;;;3.23;1.93;;;11.50;99.90;;;;;;5027859;28;20556;-76
2021/05/14 11:13:42;;;;;;;2.83;1.83;;;11.60;99.90;;;;;;5027366;28;20610;-75
2021/05/14 11:16:45;;;;;;;2.00;1.90;;;11.60;99.90;;;;;;5027692;28;20201;-76
2021/05/14 11:19:14;;;;;;;2.07;1.90;;;11.60;99.90;;;;;;5027099;28;20240;-76
2021/05/14 11:22:12;;;;;;;1.80;1.67;;;11.70;99.90;;;;;;5027430;28;20261;-76
2021/05/14 11:24:41;;;;;;;6.93;6.33;;;11.70;99.90;;;;;;5027162;28;20266;-76
2021/05/14 11:27:10;;;;;;;2.47;2.10;;;11.80;99.90;;;;;;5027454;28;20205;-76
2021/05/14 11:29:41;;;;;;;2.10;2.00;;;11.70;99.90;;;;;;5027068;28;20217;-76
2021/05/14 11:32:33;;;;;;;2.30;2.10;;;11.70;99.90;;;;;;5027234;28;20215;-75
2021/05/14 11:35:12;;;;;;;2.20;1.90;;;11.60;99.90;;;;;;5027274;28;20205;-75
2021/05/14 11:37:49;;;;;;;2.20;2.00;;;11.50;99.90;;;;;;5026708;28;20193;-75
2021/05/14 11:40:18;;;;;;;3.57;2.33;;;11.40;99.90;;;;;;5026847;28;20237;-76
2021/05/14 11:42:46;;;;;;;3.03;2.20;;;11.40;99.90;;;;;;5027311;28;20213;-76
2021/05/14 11:45:18;;;;;;;2.40;2.30;;;11.30;99.90;;;;;;5027108;28;20216;-76
2021/05/14 11:47:52;;;;;;;2.83;2.53;;;11.30;99.90;;;;;;5026971;28;20201;-76
2021/05/14 11:50:26;;;;;;;2.33;2.10;;;11.20;99.90;;;;;;5027173;28;20543;-76
2021/05/14 11:52:52;;;;;;;2.00;1.90;;;11.10;99.90;;;;;;5026667;28;20204;-76
2021/05/14 11:55:19;;;;;;;1.70;1.60;;;11.20;99.90;;;;;;5027243;28;20205;-76
2021/05/14 11:57:50;;;;;;;3.50;2.03;;;11.30;99.90;;;;;;5026475;28;20268;-76
2021/05/14 12:00:24;;;;;;;2.10;1.90;;;11.30;99.90;;;;;;5026901;28;20209;-76
2021/05/14 12:02:50;;;;;;;3.43;1.57;;;11.10;99.90;;;;;;5026650;28;20193;-75
2021/05/14 12:05:17;;;;;;;1.77;1.67;;;11.30;99.90;;;;;;5026721;28;20244;-76
2021/05/14 12:07:44;;;;;;;2.10;2.00;;;11.30;99.90;;;;;;5026457;28;20209;-75
2021/05/14 12:10:13;;;;;;;2.80;1.80;;;11.30;99.90;;;;;;5026580;28;20205;-75
2021/05/14 12:12:41;;;;;;;1.73;1.63;;;11.30;99.90;;;;;;5026876;28;20204;-75
2021/05/14 12:15:26;;;;;;;1.70;1.57;;;11.20;99.90;;;;;;5026076;28;20667;-76
2021/05/14 12:17:59;;;;;;;2.40;1.17;;;11.30;99.90;;;;;;5026380;28;20217;-76
2021/05/14 12:20:31;;;;;;;1.97;1.47;;;11.40;99.90;;;;;;5026552;28;20683;-75
2021/05/14 12:22:59;;;;;;;1.87;1.30;;;11.50;99.90;;;;;;5026553;28;20601;-76
2021/05/14 12:25:27;;;;;;;1.30;1.20;;;11.50;99.90;;;;;;5026514;28;20584;-76
2021/05/14 12:27:55;;;;;;;1.17;1.10;;;11.40;99.90;;;;;;5026349;28;20213;-76
2021/05/14 12:30:22;;;;;;;1.03;0.80;;;11.50;99.90;;;;;;5026626;28;20572;-76
2021/05/14 12:33:00;;;;;;;1.03;0.80;;;11.50;99.90;;;;;;5025970;28;20670;-75
2021/05/14 12:35:26;;;;;;;0.60;0.60;;;11.50;99.90;;;;;;5026287;28;20261;-75
2021/05/14 12:37:55;;;;;;;1.63;0.80;;;11.50;99.90;;;;;;5025921;28;20693;-76
2021/05/14 12:40:31;;;;;;;1.73;0.67;;;11.60;99.90;;;;;;5025161;28;20241;-75
2021/05/14 12:43:08;;;;;;;0.70;0.70;;;11.60;99.90;;;;;;5026173;28;20193;-76
2021/05/14 12:45:36;;;;;;;1.40;1.00;;;11.90;99.90;;;;;;5025807;28;20231;-76
2021/05/14 12:48:04;;;;;;;0.70;0.67;;;11.90;99.90;;;;;;5025822;28;20693;-76
2021/05/14 12:50:31;;;;;;;0.43;0.43;;;11.90;99.90;;;;;;5024767;28;20658;-76
2021/05/14 12:52:57;;;;;;;0.80;0.50;;;11.90;99.90;;;;;;5026039;28;20201;-75
2021/05/14 12:55:24;;;;;;;1.97;0.60;;;11.90;99.90;;;;;;5025923;28;20208;-76